KENW

Kenosha Regional Airport

Kenosha, Wisconsin, USA
METAR KENW 221353Z 26008KT 10SM CLR 06/01 A3003 RMK AO2 SLP175 T00560011
Observed Flight Rules
Oct-22 @ 13:53 UTC (29 minutes ago) Visual Flight Rules
Wind Visibility Clouds
260° at 8 knots 10 miles
  • Clear skies
Temperatures Readings
Current 6°C / 43°F
Dewpoint 1°C / 34°F
Humidity 71%
Altimeter 30.03" Hg
Pressure 1017.5 hPa
Elevation 219
METAR KENW 221353Z 26008KT 10SM CLR 06/01 A3003 RMK AO2 SLP175 T00560011
Observed Flight Rules
Oct-22 @ 13:53 UTC
(29 minutes ago)
VFR
Wind Visibility
260° at 8 knots 10 miles
Clouds
  • Clear skies
Temperature Dewpoint
6°C / 43°F 1°C / 34°F
Humidity Altimeter Pressure
71% 30.03" Hg 1017.5 hPa